This demonstration page uses our WeatherBlox Daily Observations layout. Learn more.

38.89511, -77.03637

Hourly Observations for January 15, 2018

Temp ( °F °C ) Dew Point ( °F °C ) Humidity (%) Winds ( mph kmh ) Pressure ( in mb ) Visibility ( mi km ) Precip ( " mm )
12:52 am 00:52 Mostly Cloudy 20 -6.7 5 -15 52 52 NNE 8 13 30.65 1038 10 16.0934 0 0
1:52 am 01:52 Cloudy 19 -7.2 6 -14.4 57 57 N 9 15 30.64 1038 10 16.0934 0 0
2:52 am 02:52 Partly Cloudy 19 -7.2 7 -13.9 59 59 NNE 8 13 30.63 1037 10 16.0934 0 0
3:52 am 03:52 Partly Cloudy 19 -7.2 7 -13.9 59 59 NNE 9 15 30.61 1037 10 16.0934 0 0
4:52 am 04:52 Mostly Cloudy 19 -7.2 7 -13.9 59 59 NNE 8 13 30.6 1036 10 16.0934 0 0
5:52 am 05:52 Mostly Cloudy 19 -7.2 7 -13.9 59 59 NNE 9 15 30.6 1036 10 16.0934 0 0
6:52 am 06:52 Mostly Clear 18 -7.8 7 -13.9 62 62 NNE 10 17 30.6 1036 10 16.0934 0 0
7:52 am 07:52 Mostly Sunny 19 -7.2 8 -13.3 62 62 NNE 9 15 30.6 1036 10 16.0934 0 0
8:52 am 08:52 Sunny 21 -6.1 9 -12.8 59 59 NNE 8 13 30.62 1037 10 16.0934 0 0
9:18 am 09:18 Mostly Cloudy 22 -5.6 10 -12.2 60 60 NNE 8 13 30.62 1037 10 16.0934 0 0
9:52 am 09:52 Mostly Cloudy 23 -5 11 -11.7 60 60 ENE 7 11 30.62 1037 10 16.0934 0 0
9:59 am 09:59 Cloudy 23 -5 12 -11.1 63 63 NE 7 11 30.62 1037 10 16.0934 0 0
10:52 am 10:52 Partly Cloudy 26 -3.3 13 -10.6 57 57 NE 5 7 30.61 1037 10 16.0934 0 0
11:17 am 11:17 Mostly Cloudy 25 -3.9 14 -10 63 63 Calm 30.59 1036 10 16.0934 0 0
11:52 am 11:52 Cloudy 28 -2.2 15 -9.4 58 58 NE 5 7 30.57 1035 10 16.0934 0 0
12:52 pm 12:52 Cloudy 30 -1.1 16 -8.9 56 56 N 7 11 30.54 1034 10 16.0934 0 0
1:52 pm 13:52 Mostly Cloudy 31 -0.6 17 -8.3 56 56 NE 5 7 30.49 1033 10 16.0934 0 0
2:36 pm 14:36 Mostly Cloudy 32 0 19 -7.2 59 59 ENE 6 9 30.5 1033 10 16.0934 0 0
2:52 pm 14:52 Mostly Cloudy 32 0 19 -7.2 59 59 ENE 6 9 30.49 1032 10 16.0934 0 0
3:19 pm 15:19 Cloudy 32 0 19 -7.2 59 59 ENE 6 9 30.5 1033 10 16.0934 0 0
3:52 pm 15:52 Cloudy 32 0 20 -6.7 61 61 NE 5 7 30.48 1032 10 16.0934 0 0
4:52 pm 16:52 Mostly Cloudy 32 0 21 -6.1 64 64 E 7 11 30.49 1032 10 16.0934 0 0
5:52 pm 17:52 Cloudy 32 0 23 -5 69 69 SE 7 11 30.5 1033 10 16.0934 0 0
6:52 pm 18:52 Cloudy 31 -0.6 23 -5 72 72 E 8 13 30.5 1033 10 16.0934 0 0
7:52 pm 19:52 Cloudy 30 -1.1 24 -4.4 79 79 SE 6 9 30.52 1033 10 16.0934 0 0
8:52 pm 20:52 Cloudy 31 -0.6 25 -3.9 79 79 ESE 6 9 30.5 1033 10 16.0934 0 0
9:29 pm 21:29 Cloudy 30 -1.1 25 -3.9 82 82 SSE 5 7 30.5 1033 10 16.0934 0 0
9:52 pm 21:52 Cloudy 30 -1.1 26 -3.3 85 85 SE 6 9 30.5 1033 10 16.0934 0 0
10:52 pm 22:52 Cloudy 30 -1.1 27 -2.8 88 88 SSE 6 9 30.5 1033 10 16.0934 0 0
11:04 pm 23:04 Cloudy 31 -0.6 27 -2.8 85 85 S 5 7 30.5 1033 10 16.0934 0 0
11:52 pm 23:52 Cloudy 30 -1.1 28 -2.2 92 92 SSW 3 6 30.49 1033 10 16.0934 0 0

Powered by AerisWeather